createdAt,value
2023-05-16T00:01:41.526Z,100.00
2023-05-16T00:04:08.889Z,100.00
2023-05-16T00:06:36.475Z,100.00
2023-05-16T00:09:03.938Z,100.00
2023-05-16T00:15:35.967Z,100.00
2023-05-16T00:18:03.297Z,100.00
2023-05-16T00:20:32.020Z,100.00
2023-05-16T00:23:01.374Z,100.00
2023-05-16T00:25:29.003Z,100.00
2023-05-16T00:27:56.237Z,100.00
2023-05-16T00:30:23.730Z,100.00
2023-05-16T00:32:52.426Z,100.00
2023-05-16T00:35:19.940Z,100.00
2023-05-16T00:37:47.253Z,100.00
2023-05-16T00:40:15.933Z,100.00
2023-05-16T00:42:43.268Z,100.00
2023-05-16T00:45:11.391Z,100.00
2023-05-16T00:47:38.603Z,100.00
2023-05-16T00:50:07.355Z,100.00
2023-05-16T00:52:36.198Z,100.00
2023-05-16T00:55:04.701Z,100.00
2023-05-16T00:57:33.330Z,100.00
2023-05-16T01:00:00.991Z,100.00
2023-05-16T01:02:29.330Z,100.00
2023-05-16T01:04:57.315Z,100.00
2023-05-16T01:07:24.493Z,100.00
2023-05-16T01:09:52.506Z,100.00
2023-05-16T01:12:56.872Z,100.00
2023-05-16T01:15:39.035Z,100.00
2023-05-16T01:18:08.611Z,100.00
2023-05-16T01:20:48.369Z,100.00
2023-05-16T01:23:36.700Z,100.00
2023-05-16T01:26:27.191Z,100.00
2023-05-16T01:28:55.170Z,100.00
2023-05-16T01:31:24.023Z,100.00
2023-05-16T01:33:52.062Z,100.00
2023-05-16T01:36:50.571Z,100.00
2023-05-16T01:39:33.631Z,100.00
2023-05-16T01:42:07.272Z,100.00
2023-05-16T01:45:03.674Z,100.00
2023-05-16T01:47:33.381Z,100.00
2023-05-16T01:50:23.918Z,100.00
2023-05-16T01:53:06.840Z,100.00
2023-05-16T01:55:47.448Z,100.00
2023-05-16T01:58:16.505Z,100.00
2023-05-16T02:00:44.926Z,100.00
2023-05-16T02:03:12.916Z,100.00
2023-05-16T02:05:40.455Z,100.00
2023-05-16T02:08:09.835Z,100.00
2023-05-16T02:10:37.029Z,100.00
2023-05-16T02:13:04.486Z,100.00
2023-05-16T02:15:31.680Z,100.00
2023-05-16T02:18:00.095Z,100.00
2023-05-16T02:20:27.322Z,100.00
2023-05-16T02:22:54.894Z,100.00
2023-05-16T02:25:22.166Z,100.00
2023-05-16T02:27:49.708Z,100.00
2023-05-16T02:30:16.945Z,100.00
2023-05-16T02:32:49.181Z,100.00
2023-05-16T02:35:17.424Z,100.00
2023-05-16T02:37:44.863Z,100.00
2023-05-16T02:40:13.060Z,100.00
2023-05-16T02:42:40.545Z,100.00
2023-05-16T02:45:08.132Z,100.00
2023-05-16T02:47:35.748Z,100.00
2023-05-16T02:50:03.802Z,100.00
2023-05-16T02:52:31.360Z,100.00
2023-05-16T02:55:16.101Z,100.00
2023-05-16T02:57:46.116Z,100.00
2023-05-16T03:00:15.618Z,100.00
2023-05-16T03:02:44.997Z,100.00
2023-05-16T03:05:12.383Z,100.00
2023-05-16T03:07:41.328Z,100.00
2023-05-16T03:10:08.976Z,100.00
2023-05-16T03:12:36.430Z,100.00
2023-05-16T03:15:04.262Z,100.00
2023-05-16T03:17:31.932Z,100.00
2023-05-16T03:19:59.177Z,100.00
2023-05-16T03:22:26.668Z,100.00
2023-05-16T03:24:53.845Z,100.00
2023-05-16T03:27:23.567Z,100.00
2023-05-16T03:29:50.784Z,100.00
2023-05-16T03:32:18.340Z,100.00
2023-05-16T03:34:46.854Z,100.00
2023-05-16T03:37:16.106Z,100.00
2023-05-16T03:39:43.514Z,100.00
2023-05-16T03:42:11.058Z,100.00
2023-05-16T03:44:38.552Z,100.00
2023-05-16T03:47:06.477Z,100.00
2023-05-16T03:49:33.729Z,100.00
2023-05-16T03:52:01.903Z,100.00
2023-05-16T03:54:29.104Z,100.00
2023-05-16T03:56:56.583Z,100.00
2023-05-16T03:59:23.789Z,100.00
2023-05-16T04:01:51.319Z,100.00
2023-05-16T04:04:18.591Z,100.00
2023-05-16T04:06:46.021Z,100.00
2023-05-16T04:09:13.726Z,100.00
2023-05-16T04:11:41.176Z,100.00
2023-05-16T04:14:08.439Z,100.00
2023-05-16T04:16:36.099Z,100.00
2023-05-16T04:19:04.065Z,100.00
2023-05-16T04:21:31.943Z,100.00
2023-05-16T04:23:59.342Z,100.00
2023-05-16T04:26:27.640Z,100.00
2023-05-16T04:28:54.851Z,100.00
2023-05-16T04:31:23.250Z,100.00
2023-05-16T04:33:50.537Z,100.00
2023-05-16T04:36:17.997Z,100.00
2023-05-16T04:38:46.921Z,100.00
2023-05-16T04:41:14.636Z,100.00
2023-05-16T04:43:42.208Z,100.00
2023-05-16T04:46:10.237Z,100.00
2023-05-16T04:48:37.476Z,100.00
2023-05-16T04:51:05.128Z,100.00
2023-05-16T04:53:32.598Z,100.00
2023-05-16T04:56:00.966Z,100.00
2023-05-16T04:58:28.117Z,100.00
2023-05-16T05:00:55.975Z,100.00
2023-05-16T05:03:23.277Z,100.00
2023-05-16T05:05:51.860Z,100.00
2023-05-16T05:08:19.232Z,100.00
2023-05-16T05:10:46.681Z,100.00
2023-05-16T05:13:14.197Z,100.00
2023-05-16T05:15:41.646Z,100.00
2023-05-16T05:18:08.910Z,100.00
2023-05-16T05:20:36.449Z,100.00
2023-05-16T05:23:03.749Z,100.00
2023-05-16T05:25:31.234Z,100.00
2023-05-16T05:27:58.438Z,100.00
2023-05-16T05:30:25.928Z,100.00
2023-05-16T05:32:54.945Z,100.00
2023-05-16T05:35:22.461Z,100.00
2023-05-16T05:37:49.596Z,100.00
2023-05-16T05:40:17.031Z,100.00
2023-05-16T05:42:46.782Z,100.00
2023-05-16T05:45:16.156Z,100.00
2023-05-16T05:47:44.107Z,100.00
2023-05-16T05:50:12.054Z,100.00
2023-05-16T05:52:39.275Z,100.00
2023-05-16T05:55:07.114Z,100.00
2023-05-16T05:57:34.312Z,100.00
2023-05-16T06:00:02.126Z,100.00
2023-05-16T06:02:35.412Z,100.00
2023-05-16T06:05:03.174Z,100.00
2023-05-16T06:07:31.330Z,100.00
2023-05-16T06:09:59.638Z,100.00
2023-05-16T06:12:26.818Z,100.00
2023-05-16T06:14:54.250Z,100.00
2023-05-16T06:17:21.506Z,100.00
2023-05-16T06:19:49.035Z,100.00
2023-05-16T06:22:16.236Z,100.00
2023-05-16T06:24:43.753Z,100.00
2023-05-16T06:27:10.900Z,100.00
2023-05-16T06:29:38.717Z,100.00
2023-05-16T06:32:06.395Z,100.00
2023-05-16T06:34:33.914Z,100.00
2023-05-16T06:37:03.758Z,100.00
2023-05-16T06:39:31.274Z,100.00
2023-05-16T06:41:58.517Z,100.00
2023-05-16T06:44:26.127Z,100.00
2023-05-16T06:46:53.506Z,100.00
2023-05-16T06:49:21.461Z,100.00
2023-05-16T06:51:48.671Z,100.00
2023-05-16T06:54:16.362Z,100.00
2023-05-16T06:56:43.666Z,100.00
2023-05-16T06:59:11.228Z,100.00
2023-05-16T07:01:38.494Z,100.00
2023-05-16T07:04:06.546Z,100.00
2023-05-16T07:06:34.079Z,100.00
2023-05-16T07:09:02.383Z,100.00
2023-05-16T07:11:29.599Z,100.00
2023-05-16T07:13:57.142Z,100.00
2023-05-16T07:16:24.534Z,100.00
2023-05-16T07:18:52.569Z,100.00
2023-05-16T07:21:20.190Z,96.76
2023-05-16T07:23:48.055Z,100.00
2023-05-16T07:26:15.581Z,100.00
2023-05-16T07:28:43.098Z,100.00
2023-05-16T07:31:10.576Z,100.00
2023-05-16T07:33:38.158Z,100.00
2023-05-16T07:36:15.958Z,100.00
2023-05-16T07:38:45.391Z,100.00
2023-05-16T07:41:12.673Z,100.00
2023-05-16T07:43:40.211Z,100.00
2023-05-16T07:46:07.463Z,97.20
2023-05-16T07:48:35.044Z,96.66
2023-05-16T07:51:02.257Z,99.37
2023-05-16T07:53:29.762Z,99.97
2023-05-16T07:55:57.156Z,100.00
2023-05-16T07:58:24.778Z,99.79
2023-05-16T08:00:52.018Z,100.00
2023-05-16T08:03:19.780Z,100.00
2023-05-16T08:05:48.984Z,100.00
2023-05-16T08:08:16.568Z,100.00
2023-05-16T08:10:43.889Z,100.00
2023-05-16T08:13:11.511Z,100.00
2023-05-16T08:15:38.797Z,100.00
2023-05-16T08:18:14.367Z,100.00
2023-05-16T08:20:42.366Z,100.00
2023-05-16T08:23:10.011Z,100.00
2023-05-16T08:25:37.401Z,100.00
2023-05-16T08:28:04.998Z,100.00
2023-05-16T08:30:32.357Z,100.00
2023-05-16T08:32:59.921Z,100.00
2023-05-16T08:35:27.394Z,100.00
2023-05-16T08:37:55.173Z,100.00
2023-05-16T08:40:26.594Z,100.00
2023-05-16T08:42:54.417Z,100.00
2023-05-16T08:45:23.672Z,100.00
2023-05-16T08:47:55.186Z,100.00
2023-05-16T08:50:23.015Z,100.00
2023-05-16T08:52:53.101Z,100.00
2023-05-16T08:55:22.333Z,100.00
2023-05-16T08:57:52.069Z,100.00
2023-05-16T09:00:19.895Z,100.00
2023-05-16T09:02:47.613Z,100.00
2023-05-16T09:05:16.424Z,100.00
2023-05-16T09:07:44.734Z,100.00
2023-05-16T09:10:13.141Z,100.00
2023-05-16T09:12:42.209Z,100.00
2023-05-16T09:15:11.350Z,100.00
2023-05-16T09:17:44.496Z,100.00
2023-05-16T09:20:17.456Z,100.00
2023-05-16T09:22:56.285Z,100.00
2023-05-16T09:25:30.393Z,100.00
2023-05-16T09:28:02.722Z,97.67
2023-05-16T09:30:33.832Z,91.21
2023-05-16T09:33:02.012Z,82.15
2023-05-16T09:37:59.974Z,75.23
2023-05-16T09:40:27.154Z,74.89
2023-05-16T09:43:02.318Z,80.78
2023-05-16T09:45:31.072Z,82.13
2023-05-16T09:48:10.397Z,81.87
2023-05-16T09:50:38.035Z,87.39
2023-05-16T09:53:05.963Z,86.43
2023-05-16T09:55:33.737Z,84.32
2023-05-16T09:58:01.354Z,86.25
2023-05-16T10:00:33.375Z,87.62
2023-05-16T10:03:05.861Z,95.15
2023-05-16T10:05:34.925Z,91.42
2023-05-16T10:08:03.614Z,90.47
2023-05-16T10:10:33.008Z,91.94
2023-05-16T10:13:03.547Z,89.45
2023-05-16T10:15:31.197Z,89.17
2023-05-16T10:18:00.718Z,84.24
2023-05-16T10:20:28.313Z,76.74
2023-05-16T10:22:56.931Z,72.51
2023-05-16T10:25:41.460Z,73.92
2023-05-16T10:28:09.657Z,72.23
2023-05-16T10:30:40.590Z,74.83
2023-05-16T10:33:09.402Z,73.08
2023-05-16T10:35:37.246Z,75.32
2023-05-16T10:38:08.179Z,69.15
2023-05-16T10:40:37.647Z,68.90
2023-05-16T10:43:07.850Z,64.90
2023-05-16T10:45:39.966Z,65.97
2023-05-16T10:48:10.950Z,66.99
2023-05-16T10:50:44.011Z,71.63
2023-05-16T10:53:22.749Z,70.28
2023-05-16T10:55:59.203Z,69.22
2023-05-16T10:58:39.091Z,64.56
2023-05-16T11:01:24.948Z,65.97
2023-05-16T11:04:04.842Z,65.24
2023-05-16T11:06:45.546Z,64.07
2023-05-16T11:09:16.084Z,64.26
2023-05-16T11:11:52.816Z,63.66
2023-05-16T11:14:32.910Z,66.04
2023-05-16T11:17:09.452Z,64.95
2023-05-16T11:19:59.799Z,70.96
2023-05-16T11:22:29.973Z,71.44
2023-05-16T11:25:08.984Z,71.06
2023-05-16T11:27:47.142Z,71.58
2023-05-16T11:30:17.780Z,70.94
2023-05-16T11:32:46.501Z,74.06
2023-05-16T11:35:18.483Z,71.61
2023-05-16T11:37:47.151Z,70.31
2023-05-16T11:40:17.412Z,72.54
2023-05-16T11:42:48.463Z,71.05
2023-05-16T11:45:22.456Z,66.90
2023-05-16T11:47:50.151Z,68.16
2023-05-16T11:50:26.789Z,67.18
2023-05-16T11:52:56.395Z,69.37
2023-05-16T11:55:40.391Z,67.52
2023-05-16T11:58:10.332Z,71.39
2023-05-16T12:00:48.554Z,70.00
2023-05-16T12:03:16.158Z,67.27
2023-05-16T12:05:54.790Z,65.82
2023-05-16T12:08:22.728Z,64.21
2023-05-16T12:10:51.910Z,64.08
2023-05-16T12:13:21.131Z,64.85
2023-05-16T12:15:49.012Z,63.05
2023-05-16T12:18:17.380Z,64.50
2023-05-16T12:20:45.465Z,64.91
2023-05-16T12:23:14.021Z,66.57
2023-05-16T12:25:46.971Z,66.78
2023-05-16T12:28:15.192Z,68.74
2023-05-16T12:30:44.408Z,70.45
2023-05-16T12:33:16.390Z,68.77
2023-05-16T12:35:46.005Z,69.36
2023-05-16T12:38:15.296Z,69.29
2023-05-16T12:40:44.200Z,69.74
2023-05-16T12:43:20.289Z,70.55
2023-05-16T12:45:53.058Z,71.86
2023-05-16T12:48:22.699Z,72.64
2023-05-16T12:50:51.056Z,70.64
2023-05-16T12:53:19.433Z,76.42
2023-05-16T12:55:46.930Z,77.09
2023-05-16T12:58:14.617Z,78.68
2023-05-16T13:00:41.927Z,79.70
2023-05-16T13:03:09.638Z,78.94
2023-05-16T13:05:36.926Z,76.95
2023-05-16T13:08:04.768Z,78.24
2023-05-16T13:10:31.975Z,77.06
2023-05-16T13:13:00.333Z,73.27
2023-05-16T13:15:28.226Z,74.39
2023-05-16T13:17:56.406Z,76.07
2023-05-16T13:20:23.750Z,76.04
2023-05-16T13:22:51.309Z,77.53
2023-05-16T13:25:18.712Z,75.71
2023-05-16T13:27:46.488Z,78.93
2023-05-16T13:30:13.897Z,81.45
2023-05-16T13:32:42.533Z,80.26
2023-05-16T13:35:10.459Z,82.60
2023-05-16T13:37:38.061Z,82.24
2023-05-16T13:40:08.699Z,79.79
2023-05-16T13:42:39.815Z,80.00
2023-05-16T13:45:08.067Z,79.46
2023-05-16T13:47:36.622Z,78.87
2023-05-16T13:50:09.199Z,77.25
2023-05-16T13:52:38.347Z,77.69
2023-05-16T13:55:06.496Z,78.07
2023-05-16T13:57:34.424Z,79.33
2023-05-16T14:02:40.674Z,81.47
2023-05-16T14:05:09.662Z,81.72
2023-05-16T14:07:37.248Z,83.36
2023-05-16T14:10:06.955Z,82.09
2023-05-16T14:12:34.690Z,82.74
2023-05-16T14:15:02.209Z,80.85
2023-05-16T14:17:30.027Z,79.77
2023-05-16T14:19:57.455Z,80.79
2023-05-16T14:22:25.004Z,83.40
2023-05-16T14:24:52.249Z,84.68
2023-05-16T14:27:19.751Z,82.58
2023-05-16T14:29:48.957Z,83.30
2023-05-16T14:32:17.057Z,85.03
2023-05-16T14:34:44.633Z,86.02
2023-05-16T14:37:12.253Z,83.75
2023-05-16T14:39:39.491Z,84.08
2023-05-16T14:42:08.755Z,83.27
2023-05-16T14:44:36.342Z,81.92
2023-05-16T14:47:04.586Z,83.84
2023-05-16T14:49:32.366Z,83.36
2023-05-16T14:51:59.951Z,82.51
2023-05-16T14:54:27.266Z,81.72
2023-05-16T14:56:55.779Z,80.16
2023-05-16T14:59:22.992Z,81.58
2023-05-16T15:01:50.637Z,80.78
2023-05-16T15:04:17.922Z,80.08
2023-05-16T15:06:45.593Z,80.85
2023-05-16T15:09:13.637Z,77.89
2023-05-16T15:11:41.679Z,78.88
2023-05-16T15:14:08.912Z,79.54
2023-05-16T15:16:36.742Z,82.22
2023-05-16T15:19:04.061Z,78.24
2023-05-16T15:21:32.710Z,76.97
2023-05-16T15:23:59.984Z,75.30
2023-05-16T15:26:27.963Z,74.35
2023-05-16T15:28:55.799Z,75.46
2023-05-16T15:31:23.542Z,78.97
2023-05-16T15:33:51.227Z,78.80
2023-05-16T15:36:18.896Z,77.86
2023-05-16T15:38:47.571Z,77.63
2023-05-16T15:41:36.877Z,78.11
2023-05-16T15:44:03.222Z,77.69
2023-05-16T15:46:33.094Z,78.03
2023-05-16T15:49:00.956Z,77.25
2023-05-16T15:51:28.542Z,78.04
2023-05-16T15:53:55.762Z,77.84
2023-05-16T15:56:23.371Z,78.10
2023-05-16T15:58:50.909Z,77.80
2023-05-16T16:01:18.582Z,79.69
2023-05-16T16:03:46.581Z,79.12
2023-05-16T16:06:14.242Z,80.74
2023-05-16T16:08:41.441Z,81.24
2023-05-16T16:11:09.289Z,83.13
2023-05-16T16:13:36.942Z,83.95
2023-05-16T16:16:04.682Z,85.81
2023-05-16T16:18:32.057Z,87.62
2023-05-16T16:20:59.655Z,86.16
2023-05-16T16:23:26.927Z,86.54
2023-05-16T16:25:54.455Z,85.04
2023-05-16T16:28:22.584Z,85.90
2023-05-16T16:30:50.638Z,86.56
2023-05-16T16:33:18.038Z,86.63
2023-05-16T16:35:45.848Z,88.17
2023-05-16T16:38:13.077Z,89.00
2023-05-16T16:40:40.771Z,87.36
2023-05-16T16:43:08.051Z,85.92
2023-05-16T16:45:36.030Z,87.56
2023-05-16T16:48:03.404Z,88.08
2023-05-16T16:50:32.873Z,87.25
2023-05-16T16:53:02.038Z,90.81
2023-05-16T16:55:29.896Z,91.15
2023-05-16T16:57:57.702Z,92.04
2023-05-16T17:00:25.318Z,88.71
2023-05-16T17:02:52.707Z,87.52
2023-05-16T17:05:20.773Z,87.28
2023-05-16T17:07:48.047Z,85.75
2023-05-16T17:10:16.902Z,84.89
2023-05-16T17:12:49.337Z,89.36
2023-05-16T17:15:17.731Z,85.92
2023-05-16T17:17:49.418Z,87.53
2023-05-16T17:20:17.286Z,87.70
2023-05-16T17:22:44.924Z,86.83
2023-05-16T17:25:12.622Z,87.87
2023-05-16T17:27:40.995Z,88.16
2023-05-16T17:30:10.605Z,88.46
2023-05-16T17:32:38.018Z,88.60
2023-05-16T17:35:06.334Z,86.88
2023-05-16T17:37:33.801Z,85.30
2023-05-16T17:40:01.630Z,85.85
2023-05-16T17:42:28.909Z,83.37
2023-05-16T17:44:56.508Z,82.75
2023-05-16T17:47:24.475Z,82.44
2023-05-16T17:49:52.130Z,82.72
2023-05-16T17:52:20.259Z,82.08
2023-05-16T17:54:48.190Z,81.53
2023-05-16T17:57:15.500Z,80.96
2023-05-16T17:59:43.073Z,82.44
2023-05-16T18:02:10.347Z,81.17
2023-05-16T18:04:38.246Z,82.55
2023-05-16T18:07:05.572Z,80.29
2023-05-16T18:09:33.172Z,80.28
2023-05-16T18:12:01.429Z,79.34
2023-05-16T18:14:29.261Z,79.75
2023-05-16T18:16:56.491Z,79.51
2023-05-16T18:19:24.269Z,78.67
2023-05-16T18:21:51.986Z,79.14
2023-05-16T18:24:19.535Z,78.43
2023-05-16T18:26:48.518Z,77.16
2023-05-16T18:29:16.312Z,76.03
2023-05-16T18:31:44.350Z,76.29
2023-05-16T18:34:12.114Z,75.42
2023-05-16T18:36:39.469Z,78.52
2023-05-16T18:39:07.244Z,77.54
2023-05-16T18:41:34.571Z,78.46
2023-05-16T18:44:02.159Z,78.23
2023-05-16T18:46:29.374Z,77.00
2023-05-16T18:48:57.995Z,76.50
2023-05-16T18:51:25.400Z,76.64
2023-05-16T18:53:53.178Z,75.96
2023-05-16T18:56:21.914Z,75.14
2023-05-16T18:58:49.481Z,75.57
2023-05-16T19:01:17.023Z,74.67
2023-05-16T19:03:44.783Z,75.16
2023-05-16T19:06:12.139Z,73.92
2023-05-16T19:08:47.450Z,74.10
2023-05-16T19:11:17.635Z,74.00
2023-05-16T19:13:46.097Z,74.00
2023-05-16T19:16:13.431Z,74.19
2023-05-16T19:18:41.216Z,73.58
2023-05-16T19:21:08.798Z,73.44
2023-05-16T19:23:36.660Z,75.07
2023-05-16T19:26:04.626Z,77.39
2023-05-16T19:28:33.472Z,76.86
2023-05-16T19:31:00.910Z,76.05
2023-05-16T19:33:28.535Z,77.82
2023-05-16T19:35:58.717Z,78.06
2023-05-16T19:38:26.770Z,76.61
2023-05-16T19:40:54.701Z,77.70
2023-05-16T19:43:22.222Z,77.41
2023-05-16T19:45:49.818Z,78.95
2023-05-16T19:48:17.633Z,79.19
2023-05-16T19:50:45.085Z,78.86
2023-05-16T19:53:12.596Z,79.85
2023-05-16T19:55:39.987Z,80.13
2023-05-16T19:58:07.601Z,80.11
2023-05-16T20:00:34.800Z,79.33
2023-05-16T20:03:02.520Z,79.50
2023-05-16T20:05:30.234Z,80.64
2023-05-16T20:07:58.174Z,80.71
2023-05-16T20:10:25.509Z,80.80
2023-05-16T20:12:53.061Z,80.32
2023-05-16T20:15:20.272Z,82.05
2023-05-16T20:17:47.810Z,81.90
2023-05-16T20:20:15.102Z,84.28
2023-05-16T20:22:42.665Z,82.17
2023-05-16T20:25:11.431Z,81.61
2023-05-16T20:27:39.167Z,83.54
2023-05-16T20:30:07.587Z,83.40
2023-05-16T20:32:35.652Z,82.96
2023-05-16T20:35:04.843Z,83.66
2023-05-16T20:37:33.455Z,84.13
2023-05-16T20:40:00.772Z,85.04
2023-05-16T20:42:28.327Z,85.62
2023-05-16T20:44:55.663Z,86.86
2023-05-16T20:47:23.209Z,88.17
2023-05-16T20:49:50.599Z,88.51
2023-05-16T20:52:19.355Z,87.30
2023-05-16T20:54:47.736Z,87.04
2023-05-16T20:57:16.211Z,86.47
2023-05-16T20:59:43.449Z,87.07
2023-05-16T21:02:13.620Z,87.94
2023-05-16T21:04:41.033Z,87.58
2023-05-16T21:07:08.837Z,89.51
2023-05-16T21:09:37.899Z,89.94
2023-05-16T21:12:05.976Z,90.36
2023-05-16T21:14:33.182Z,90.44
2023-05-16T21:17:00.803Z,90.68
2023-05-16T21:19:30.248Z,91.43
2023-05-16T21:21:57.810Z,91.37
2023-05-16T21:24:25.029Z,91.75
2023-05-16T21:26:52.527Z,90.97
2023-05-16T21:29:19.725Z,90.01
2023-05-16T21:31:47.339Z,89.05
2023-05-16T21:34:14.654Z,88.72
2023-05-16T21:36:42.161Z,88.87
2023-05-16T21:39:09.852Z,89.61
2023-05-16T21:41:37.387Z,90.72
2023-05-16T21:44:04.836Z,91.56
2023-05-16T21:46:33.398Z,90.87
2023-05-16T21:49:00.730Z,91.75
2023-05-16T21:51:28.304Z,92.62
2023-05-16T21:53:55.532Z,92.63
2023-05-16T21:56:23.219Z,94.10
2023-05-16T21:58:50.424Z,94.57
2023-05-16T22:01:20.216Z,93.86
2023-05-16T22:03:47.674Z,94.31
2023-05-16T22:06:15.254Z,92.01
2023-05-16T22:08:42.551Z,93.34
2023-05-16T22:11:10.071Z,93.81
2023-05-16T22:13:37.416Z,93.67
2023-05-16T22:16:05.610Z,93.60
2023-05-16T22:18:33.725Z,92.99
2023-05-16T22:21:01.902Z,92.75
2023-05-16T22:23:29.344Z,93.70
2023-05-16T22:25:56.882Z,95.46
2023-05-16T22:28:24.248Z,96.33
2023-05-16T22:30:51.760Z,96.89
2023-05-16T22:33:19.079Z,97.59
2023-05-16T22:35:46.695Z,97.64
2023-05-16T22:38:13.916Z,99.39
2023-05-16T22:40:41.699Z,99.17
2023-05-16T22:43:09.023Z,97.98
2023-05-16T22:45:36.655Z,97.09
2023-05-16T22:48:04.203Z,96.30
2023-05-16T22:50:31.839Z,97.47
2023-05-16T22:52:59.063Z,97.24
2023-05-16T22:55:26.916Z,97.86
2023-05-16T22:57:57.252Z,99.21
2023-05-16T23:00:24.855Z,98.43
2023-05-16T23:02:52.866Z,99.76
2023-05-16T23:05:21.122Z,98.99
2023-05-16T23:07:48.389Z,98.70
2023-05-16T23:10:15.972Z,99.80
2023-05-16T23:12:43.199Z,99.62
2023-05-16T23:15:11.322Z,98.64
2023-05-16T23:17:38.717Z,98.80
2023-05-16T23:20:07.591Z,98.99
2023-05-16T23:22:34.880Z,100.00
2023-05-16T23:25:02.542Z,100.00
2023-05-16T23:27:29.750Z,99.25
2023-05-16T23:29:57.570Z,98.86
2023-05-16T23:32:24.968Z,100.00
2023-05-16T23:34:52.689Z,100.00
2023-05-16T23:37:19.941Z,100.00
2023-05-16T23:39:47.487Z,100.00
2023-05-16T23:42:14.795Z,100.00
2023-05-16T23:44:42.310Z,100.00
2023-05-16T23:47:09.553Z,100.00
2023-05-16T23:49:37.133Z,100.00
2023-05-16T23:52:06.055Z,100.00
2023-05-16T23:54:34.608Z,100.00
2023-05-16T23:57:02.597Z,100.00
2023-05-16T23:59:30.122Z,100.00
